Meath Environmental Platform

Observations

Time Sensor AQI SAQ Temp °C Hum % Pres Pa CO μg/m³ H₂S μg/m³ NO μg/m³ NO₂ μg/m³ O₃ μg/m³ SO₂ μg/m³ CO₂e PPM VOC PPM PM1 μg/m³ PM2.5 μg/m³ PM4 μg/m³ PM10 μg/m³ TPS µm
Thursday 13 August 2026
10:46 Trim Market St 2 29 53 56,508 0 0 0.71 12.34 41.62 0 0.71 2.83 3.17
10:45 Trim Patrick St 1 29.1 53 70,243 0 0.41 0.74 13.48 58.35 14.19 2.86 7.77 8.54
10:44 Trim Patrick St 1 29.2 52 70,140 0 0 0.72 12.47 58.72 14.34 2.86 7.04 7.74
10:44 Trim Market St 2 29.1 53 56,325 0 0 0.77 12.22 37.88 0 0.71 2.83 3.16
10:43 Trim Patrick St 1 29.3 52 70,035 0 0 0.71 12.35 57.14 14.1 2.86 8.58 9.44
10:43 Trim Market St 2 29.2 53 56,344 0 0 0.7 12.4 22.62 0 0 2.32 2.44
10:42 Trim Patrick St 1 29.4 52 69,960 0 0 0.73 12.31 56.33 14.22 2.86 7.83 8.61
10:41 Trim Patrick St 1 29.5 52 69,919 0 0 0.78 12.09 57.18 14.29 2.86 7.84 8.62
10:41 Trim Market St 2 29.2 53 56,382 0 0 0.69 13.15 45.75 0 1.43 4.36 5.35
10:40 Trim Patrick St 1 29.6 51 69,903 0 0 0.78 12.04 43.7 13.72 2.86 7.1 7.82
10:39 Trim Patrick St 1 29.6 51 69,877 0 0 0.82 11.78 47.71 13.83 2 6.33 6.96
10:38 Trim Patrick St 1 29.7 51 69,879 0 0 0.82 11.63 52.36 14.59 3.71 8.61 9.47
10:38 Trim Market St 2 29.3 53 56,407 0 0 0.73 13.03 34.25 0 0.71 2.83 3.17
10:37 Trim Patrick St 1 29.8 52 69,909 0 0 0.82 12.53 52.84 14.56 2 7.08 7.79
10:36 Trim Patrick St 1 29.8 51 69,919 0 0 0.78 12.98 52.15 14.72 2.86 8.61 9.47
10:36 Trim Market St 2 29.4 54 56,693 0 0 0.71 12.59 25.29 0 0.71 2.79 3.19
10:35 Trim Patrick St 1 29.8 52 69,928 0 0 0.77 13.31 55.79 14.51 2.86 7.84 8.62
10:34 Trim Patrick St 1 29.8 52 69,940 0 0 0.78 13.11 55.16 14.07 2 7.07 7.77
10:33 Trim Patrick St 1 29.8 52 69,990 0 0 0.77 13.47 58.04 14.42 2.86 7.07 7.77
10:32 Trim Patrick St 1 29.8 52 70,054 0 0 0.83 13.21 57.97 14.64 2 7.07 7.78